Time,TemperatureF,DewpointF,PressureIn,WindDirection,WindDirectionDegrees,WindSpeedMPH,WindSpeedGustMPH,Humidity,HourlyPrecipIn,Conditions,Clouds,dailyrainin,SoftwareType,DateUTC
2013-05-12 00:16:00,58.1,57.8,29.59,SE,144,0.0,3.0,99,0.00,,,0.53,Wunderground v.1.15,2013-05-12 04:16:00,
2013-05-12 00:26:00,58.1,57.8,29.59,SE,144,0.0,3.0,99,0.00,,,0.53,Wunderground v.1.15,2013-05-12 04:26:00,
2013-05-12 01:06:00,57.8,57.5,29.58,SE,144,0.0,3.0,99,0.00,,,0.00,Wunderground v.1.15,2013-05-12 05:06:00,
2013-05-12 01:16:00,57.5,57.2,29.57,SE,144,0.0,3.0,99,0.00,,,0.00,Wunderground v.1.15,2013-05-12 05:16:00,
2013-05-12 01:26:00,57.6,57.3,29.57,SE,144,1.0,1.0,99,0.00,,,0.00,Wunderground v.1.15,2013-05-12 05:26:00,
2013-05-12 02:06:00,56.3,56.0,29.56,South,190,1.0,1.0,99,0.00,,,0.00,Wunderground v.1.15,2013-05-12 06:06:00,
2013-05-12 02:16:00,56.2,55.9,29.56,South,190,1.0,1.0,99,0.00,,,0.00,Wunderground v.1.15,2013-05-12 06:16:00,
2013-05-12 02:26:00,55.9,55.6,29.56,South,190,0.0,3.0,99,0.00,,,0.00,Wunderground v.1.15,2013-05-12 06:26:00,
2013-05-12 03:26:00,55.3,55.0,29.55,ESE,120,0.0,3.0,99,0.00,,,0.00,Wunderground v.1.15,2013-05-12 07:26:00,
2013-05-12 03:35:00,55.3,55.0,29.55,ESE,120,0.0,3.0,99,0.00,,,0.00,Wunderground v.1.15,2013-05-12 07:35:00,
2013-05-12 03:45:00,55.3,55.0,29.55,ESE,120,1.0,1.0,99,0.00,,,0.00,Wunderground v.1.15,2013-05-12 07:45:00,
2013-05-12 03:56:00,55.0,54.7,29.55,ESE,120,0.0,2.0,99,0.00,,,0.00,Wunderground v.1.15,2013-05-12 07:56:00,
2013-05-12 04:36:00,55.0,54.7,29.54,ESE,120,0.0,2.0,99,0.00,,,0.00,Wunderground v.1.15,2013-05-12 08:36:00,
2013-05-12 04:46:00,55.0,54.7,29.53,ESE,120,0.0,2.0,99,0.00,,,0.00,Wunderground v.1.15,2013-05-12 08:46:00,
2013-05-12 05:06:00,54.4,54.1,29.54,ESE,120,0.0,2.0,99,0.00,,,0.01,Wunderground v.1.15,2013-05-12 09:06:00,
2013-05-12 05:16:00,54.1,53.8,29.55,ESE,120,0.0,2.0,99,0.00,,,0.01,Wunderground v.1.15,2013-05-12 09:16:00,
2013-05-12 05:26:00,54.2,53.9,29.55,ESE,120,0.0,2.0,99,0.00,,,0.01,Wunderground v.1.15,2013-05-12 09:26:00,
2013-05-12 06:06:00,54.1,53.8,29.54,ESE,120,0.0,3.0,99,0.00,,,0.01,Wunderground v.1.15,2013-05-12 10:06:00,
2013-05-12 06:16:00,53.8,53.5,29.54,ESE,120,0.0,3.0,99,0.00,,,0.01,Wunderground v.1.15,2013-05-12 10:16:00,
2013-05-12 06:45:00,54.1,53.8,29.55,SW,234,0.0,4.0,99,0.00,,,0.01,Wunderground v.1.15,2013-05-12 10:45:00,
2013-05-12 06:56:00,54.1,53.8,29.55,SW,234,0.0,4.0,99,0.00,,,0.01,Wunderground v.1.15,2013-05-12 10:56:00,
2013-05-12 07:15:00,54.1,53.8,29.55,SW,234,0.0,0.0,99,0.00,,,0.01,Wunderground v.1.15,2013-05-12 11:15:00,
2013-05-12 07:26:00,53.9,53.6,29.55,SW,234,0.0,0.0,99,0.00,,,0.01,Wunderground v.1.15,2013-05-12 11:26:00,
2013-05-12 08:36:00,55.3,55.0,29.52,SW,234,0.0,2.0,99,0.00,,,0.01,Wunderground v.1.15,2013-05-12 12:36:00,
2013-05-12 08:46:00,55.4,55.1,29.52,SW,234,0.0,2.0,99,0.00,,,0.01,Wunderground v.1.15,2013-05-12 12:46:00,
2013-05-12 08:56:00,55.4,55.1,29.52,SW,234,0.0,2.0,99,0.00,,,0.01,Wunderground v.1.15,2013-05-12 12:56:00,
2013-05-12 09:16:00,55.9,55.6,29.52,SW,234,0.0,1.0,99,0.00,,,0.01,Wunderground v.1.15,2013-05-12 13:16:00,
2013-05-12 09:26:00,56.0,55.7,29.52,SW,234,0.0,1.0,99,0.00,,,0.01,Wunderground v.1.15,2013-05-12 13:26:00,
2013-05-12 09:45:00,56.6,56.3,29.50,SW,234,0.0,2.0,99,0.00,,,0.01,Wunderground v.1.15,2013-05-12 13:45:00,
2013-05-12 09:55:00,57.0,56.7,29.50,SW,234,0.0,2.0,99,0.00,,,0.01,Wunderground v.1.15,2013-05-12 13:55:00,
2013-05-12 10:16:00,58.7,58.4,29.50,SW,234,0.0,1.0,99,0.00,,,0.01,Wunderground v.1.15,2013-05-12 14:16:00,
2013-05-12 11:06:00,59.3,51.0,29.49,West,281,2.0,7.0,74,0.00,,,0.01,Wunderground v.1.15,2013-05-12 15:06:00,
2013-05-12 11:16:00,59.0,49.2,29.49,WNW,298,3.0,7.0,70,0.00,,,0.01,Wunderground v.1.15,2013-05-12 15:16:00,
2013-05-12 11:26:00,59.5,48.5,29.49,WNW,284,2.0,7.0,67,0.00,,,0.01,Wunderground v.1.15,2013-05-12 15:26:00,
2013-05-12 12:06:00,60.2,47.1,29.48,NW,308,1.0,1.0,62,0.00,,,0.01,Wunderground v.1.15,2013-05-12 16:06:00,
2013-05-12 12:16:00,60.5,47.4,29.48,North,360,0.0,7.0,62,0.00,,,0.01,Wunderground v.1.15,2013-05-12 16:16:00,
2013-05-12 12:26:00,60.9,45.6,29.48,WSW,238,0.0,7.0,57,0.00,,,0.01,Wunderground v.1.15,2013-05-12 16:26:00,
2013-05-12 12:45:00,61.8,47.8,29.47,WNW,294,1.0,1.0,60,0.00,,,0.01,Wunderground v.1.15,2013-05-12 16:45:00,
2013-05-12 12:56:00,62.4,45.5,29.47,SW,222,1.0,1.0,54,0.00,,,0.01,Wunderground v.1.15,2013-05-12 16:56:00,
2013-05-12 13:36:00,65.3,45.1,29.45,WNW,295,3.0,10.0,48,0.00,,,0.01,Wunderground v.1.15,2013-05-12 17:36:00,
2013-05-12 13:46:00,66.9,46.0,29.45,NW,309,3.0,3.0,47,0.00,,,0.01,Wunderground v.1.15,2013-05-12 17:46:00,
2013-05-12 13:56:00,67.3,44.6,29.45,West,269,4.0,10.0,44,0.00,,,0.01,Wunderground v.1.15,2013-05-12 17:56:00,
2013-05-12 14:35:00,67.1,41.3,29.45,WNW,293,3.0,3.0,39,0.00,,,0.01,Wunderground v.1.15,2013-05-12 18:35:00,
2013-05-12 14:46:00,66.0,42.2,29.45,West,277,4.0,12.0,42,0.00,,,0.01,Wunderground v.1.15,2013-05-12 18:46:00,
2013-05-12 14:56:00,64.5,43.3,29.45,SW,224,5.0,5.0,46,0.00,,,0.01,Wunderground v.1.15,2013-05-12 18:56:00,
2013-05-12 15:36:00,62.4,39.6,29.47,NNW,338,4.0,17.0,43,0.00,,,0.01,Wunderground v.1.15,2013-05-12 19:36:00,
2013-05-12 15:46:00,62.6,40.9,29.47,NW,307,4.0,4.0,45,0.00,,,0.01,Wunderground v.1.15,2013-05-12 19:46:00,
2013-05-12 15:56:00,64.0,40.4,29.47,NW,315,2.0,2.0,42,0.00,,,0.01,Wunderground v.1.15,2013-05-12 19:56:00,
2013-05-12 16:05:00,64.7,40.4,29.46,West,259,3.0,11.0,41,0.00,,,0.01,Wunderground v.1.15,2013-05-12 20:05:00,
2013-05-12 16:16:00,64.0,39.2,29.47,West,269,3.0,11.0,40,0.00,,,0.01,Wunderground v.1.15,2013-05-12 20:16:00,
2013-05-12 16:26:00,62.4,38.4,29.47,West,269,5.0,11.0,41,0.00,,,0.01,Wunderground v.1.15,2013-05-12 20:26:00,
2013-05-12 17:06:00,60.5,40.2,29.48,WNW,286,5.0,5.0,47,0.00,,,0.01,Wunderground v.1.15,2013-05-12 21:06:00,
2013-05-12 17:16:00,57.8,42.2,29.49,WNW,297,7.0,12.0,56,0.00,,,0.01,Wunderground v.1.15,2013-05-12 21:16:00,
2013-05-12 17:26:00,56.3,42.6,29.49,NW,317,8.0,8.0,60,0.00,,,0.01,Wunderground v.1.15,2013-05-12 21:26:00,
2013-05-12 18:06:00,53.9,40.8,29.53,West,279,6.0,6.0,61,0.00,,,0.01,Wunderground v.1.15,2013-05-12 22:06:00,
2013-05-12 18:16:00,53.6,40.5,29.53,West,280,5.0,17.0,61,0.00,,,0.01,Wunderground v.1.15,2013-05-12 22:16:00,
2013-05-12 18:26:00,53.3,40.2,29.53,NNW,327,4.0,17.0,61,0.00,,,0.01,Wunderground v.1.15,2013-05-12 22:26:00,
2013-05-12 18:36:00,53.1,39.1,29.54,WNW,284,4.0,17.0,59,0.00,,,0.01,Wunderground v.1.15,2013-05-12 22:36:00,
2013-05-12 18:46:00,52.8,38.4,29.55,NW,307,5.0,16.0,58,0.00,,,0.01,Wunderground v.1.15,2013-05-12 22:46:00,
2013-05-12 18:56:00,52.2,37.0,29.55,WNW,298,8.0,16.0,56,0.00,,,0.01,Wunderground v.1.15,2013-05-12 22:56:00,
2013-05-12 19:36:00,49.9,34.8,29.57,NNW,340,4.0,4.0,56,0.00,,,0.01,Wunderground v.1.15,2013-05-12 23:36:00,
2013-05-12 19:46:00,49.6,35.0,29.57,NW,317,0.0,18.0,57,0.00,,,0.01,Wunderground v.1.15,2013-05-12 23:46:00,
2013-05-12 19:56:00,49.2,34.2,29.57,WNW,296,3.0,18.0,56,0.00,,,0.01,Wunderground v.1.15,2013-05-12 23:56:00,
2013-05-12 20:36:00,48.2,35.4,29.59,WNW,284,3.0,12.0,61,0.00,,,0.01,Wunderground v.1.15,2013-05-13 00:36:00,
2013-05-12 20:46:00,47.9,35.1,29.60,WNW,284,4.0,12.0,61,0.00,,,0.01,Wunderground v.1.15,2013-05-13 00:46:00,
2013-05-12 20:56:00,47.7,35.3,29.60,West,269,4.0,4.0,62,0.00,,,0.01,Wunderground v.1.15,2013-05-13 00:56:00,
2013-05-12 21:36:00,47.3,32.8,29.61,NNW,327,3.0,14.0,57,0.00,,,0.01,Wunderground v.1.15,2013-05-13 01:36:00,
2013-05-12 21:46:00,47.4,30.6,29.62,WNW,302,5.0,14.0,52,0.00,,,0.01,Wunderground v.1.15,2013-05-13 01:46:00,
2013-05-12 22:06:00,47.3,28.1,29.63,North,5,4.0,4.0,47,0.00,,,0.01,Wunderground v.1.15,2013-05-13 02:06:00,
2013-05-12 22:16:00,46.8,27.1,29.62,West,280,5.0,19.0,46,0.00,,,0.01,Wunderground v.1.15,2013-05-13 02:16:00,
2013-05-12 22:26:00,46.8,27.1,29.62,WNW,302,6.0,19.0,46,0.00,,,0.01,Wunderground v.1.15,2013-05-13 02:26:00,
2013-05-12 23:36:00,44.9,22.6,29.64,West,273,3.0,19.0,41,0.00,,,0.01,Wunderground v.1.15,2013-05-13 03:36:00,
2013-05-12 23:46:00,44.1,24.1,29.64,West,265,3.0,15.0,45,0.00,,,0.01,Wunderground v.1.15,2013-05-13 03:46:00,